Time;durP1;ratioP1;P1;durP2;ratioP2;P2;SDS_P1;SDS_P2;PMS_P1;PMS_P2;Temp;Humidity;BMP_temperature;BMP_pressure;BME280_temperature;BME280_humidity;BME280_pressure;Samples;Min_cycle;Max_cycle;Signal;HPM_P1;HPM_P2
2023/07/25 00:01:19;;;;;;;0.50;0.50;;;;;14.90;95137.00;;;;5074480;28;20225;-55
2023/07/25 00:03:48;;;;;;;0.50;0.50;;;;;14.80;95134.00;;;;5058554;28;20202;-56
2023/07/25 00:06:16;;;;;;;0.70;0.70;;;;;14.70;95134.00;;;;5058361;28;20750;-54
2023/07/25 00:08:43;;;;;;;0.60;0.60;;;;;14.60;95131.00;;;;5076327;28;20195;-55
2023/07/25 00:11:13;;;;;;;1.00;1.00;;;;;14.70;95127.00;;;;5076233;28;20359;-55
2023/07/25 00:13:42;;;;;;;0.70;0.70;;;;;14.60;95126.00;;;;5076563;28;20557;-55
2023/07/25 00:16:10;;;;;;;0.63;0.63;;;;;14.70;95127.00;;;;5058260;28;20211;-54
2023/07/25 00:18:37;;;;;;;1.03;1.03;;;;;14.70;95112.00;;;;5076172;28;20191;-55
2023/07/25 00:21:05;;;;;;;0.93;0.93;;;;;14.70;95108.00;;;;5076031;28;20643;-55
2023/07/25 00:23:32;;;;;;;0.70;0.70;;;;;14.90;95100.00;;;;5076113;28;20278;-54
2023/07/25 00:26:00;;;;;;;0.80;0.77;;;;;14.80;95097.00;;;;5076013;28;20680;-55
2023/07/25 00:28:27;;;;;;;0.53;0.53;;;;;14.90;95087.00;;;;5075940;28;20206;-54
2023/07/25 00:30:56;;;;;;;0.50;0.50;;;;;14.80;95091.00;;;;5075818;28;20781;-55
2023/07/25 00:33:23;;;;;;;0.60;0.60;;;;;14.60;95086.00;;;;5076186;28;20199;-55
2023/07/25 00:35:54;;;;;;;0.60;0.60;;;;;14.40;95089.00;;;;5058184;28;20207;-55
2023/07/25 00:38:21;;;;;;;0.60;0.60;;;;;14.40;95090.00;;;;5076058;28;20659;-54
2023/07/25 00:40:48;;;;;;;0.50;0.50;;;;;14.50;95075.00;;;;5075947;28;20192;-55
2023/07/25 00:43:17;;;;;;;1.50;1.43;;;;;14.60;95073.00;;;;5075769;28;20198;-55
2023/07/25 00:45:44;;;;;;;1.23;1.23;;;;;14.60;95074.00;;;;5057681;28;20191;-55
2023/07/25 00:48:13;;;;;;;0.80;0.80;;;;;14.70;95076.00;;;;5075894;28;20600;-54
2023/07/25 00:50:41;;;;;;;0.87;0.87;;;;;14.60;95075.00;;;;5075770;28;20326;-55
2023/07/25 00:53:09;;;;;;;0.60;0.60;;;;;14.60;95079.00;;;;5075448;28;20686;-55
2023/07/25 00:55:37;;;;;;;0.93;0.93;;;;;14.60;95064.00;;;;5075506;28;20199;-55
2023/07/25 00:58:05;;;;;;;0.80;0.80;;;;;14.50;95072.00;;;;5075463;28;20187;-55
2023/07/25 01:00:31;;;;;;;0.60;0.60;;;;;14.50;95075.00;;;;5075669;28;20562;-55
2023/07/25 01:02:59;;;;;;;0.60;0.60;;;;;14.40;95072.00;;;;5075317;28;20211;-54
2023/07/25 01:05:29;;;;;;;0.73;0.73;;;;;14.30;95071.00;;;;5058072;28;20659;-54
2023/07/25 01:07:57;;;;;;;0.57;0.57;;;;;14.30;95066.00;;;;5075276;28;20223;-54
2023/07/25 01:10:24;;;;;;;0.60;0.60;;;;;14.30;95066.00;;;;5075131;28;20218;-55
2023/07/25 01:12:52;;;;;;;0.60;0.60;;;;;14.20;95063.00;;;;5073761;28;20254;-55
2023/07/25 01:15:19;;;;;;;0.93;0.93;;;;;14.20;95060.00;;;;5075120;28;20651;-55
2023/07/25 01:17:47;;;;;;;0.73;0.73;;;;;14.20;95046.00;;;;5075310;28;20195;-55
2023/07/25 01:20:15;;;;;;;1.00;1.00;;;;;14.20;95052.00;;;;5075071;28;20233;-55
2023/07/25 01:22:45;;;;;;;0.60;0.60;;;;;14.10;95041.00;;;;5075327;28;20231;-55
2023/07/25 01:25:15;;;;;;;0.80;0.80;;;;;14.10;95049.00;;;;5075194;28;20584;-55
2023/07/25 01:27:43;;;;;;;0.60;0.60;;;;;14.10;95048.00;;;;5075653;28;20192;-54
2023/07/25 01:30:11;;;;;;;0.70;0.70;;;;;14.20;95037.00;;;;5075507;28;20219;-55
2023/07/25 01:32:38;;;;;;;0.90;0.90;;;;;14.20;95030.00;;;;5074668;28;20724;-55
2023/07/25 01:35:07;;;;;;;0.70;0.70;;;;;14.20;95022.00;;;;5074681;28;20206;-55
2023/07/25 01:37:34;;;;;;;0.87;0.87;;;;;14.30;95016.00;;;;5074973;28;20199;-55
2023/07/25 01:40:02;;;;;;;0.90;0.90;;;;;14.40;95010.00;;;;5074634;28;20191;-55
2023/07/25 01:42:31;;;;;;;0.90;0.90;;;;;14.40;95008.00;;;;5074550;28;20238;-55
2023/07/25 01:44:58;;;;;;;2.73;0.80;;;;;14.20;95000.00;;;;5074832;28;20226;-55
2023/07/25 01:47:26;;;;;;;0.67;0.67;;;;;14.20;95005.00;;;;5074424;28;20191;-54
2023/07/25 01:49:54;;;;;;;0.50;0.50;;;;;14.10;95006.00;;;;5074332;28;20222;-54
2023/07/25 01:52:21;;;;;;;0.63;0.63;;;;;14.10;95001.00;;;;5074481;28;20273;-55
2023/07/25 01:54:50;;;;;;;0.60;0.60;;;;;14.10;95009.00;;;;5074363;28;20187;-54
2023/07/25 01:57:17;;;;;;;0.70;0.70;;;;;14.10;95003.00;;;;5056343;28;20202;-55
2023/07/25 01:59:46;;;;;;;1.00;1.00;;;;;14.00;95000.00;;;;5074491;28;20192;-55
2023/07/25 02:02:13;;;;;;;0.60;0.60;;;;;14.10;94986.00;;;;5056198;28;20216;-55
2023/07/25 02:04:41;;;;;;;0.90;0.90;;;;;14.10;94987.00;;;;5056182;28;20286;-55
2023/07/25 02:07:09;;;;;;;0.60;0.60;;;;;14.10;94990.00;;;;5074114;28;20673;-55
2023/07/25 02:09:48;;;;;;;0.70;0.70;;;;;14.10;94986.00;;;;5073939;28;20799;-55
2023/07/25 02:12:16;;;;;;;0.87;0.87;;;;;14.10;94989.00;;;;5074681;28;20531;-55
2023/07/25 02:14:43;;;;;;;3.27;1.10;;;;;13.90;94981.00;;;;5073998;28;20229;-54
2023/07/25 02:17:12;;;;;;;0.83;0.83;;;;;13.90;94986.00;;;;5074159;28;20192;-55
2023/07/25 02:19:39;;;;;;;1.13;1.13;;;;;13.80;94977.00;;;;5073871;28;20187;-55
2023/07/25 02:22:07;;;;;;;0.60;0.60;;;;;13.90;94988.00;;;;5073714;28;20273;-55
2023/07/25 02:24:35;;;;;;;2.10;1.03;;;;;13.90;94978.00;;;;5073405;28;20192;-55
2023/07/25 02:27:02;;;;;;;0.90;0.90;;;;;13.90;94979.00;;;;5055689;28;20199;-53
2023/07/25 02:29:29;;;;;;;0.77;0.77;;;;;13.70;94979.00;;;;5073542;28;20667;-53
2023/07/25 02:31:57;;;;;;;0.77;0.77;;;;;13.80;94968.00;;;;5073792;28;20227;-53
2023/07/25 02:34:25;;;;;;;10.13;1.30;;;;;13.80;94963.00;;;;5087536;22;20242;-54
2023/07/25 02:36:53;;;;;;;0.60;0.60;;;;;13.70;94975.00;;;;5073540;28;20206;-54
2023/07/25 02:39:20;;;;;;;0.53;0.53;;;;;13.80;94952.00;;;;5073454;28;20194;-54
2023/07/25 02:41:47;;;;;;;0.93;0.93;;;;;13.80;94964.00;;;;5073440;28;20199;-54
2023/07/25 02:44:15;;;;;;;0.67;0.67;;;;;13.80;94969.00;;;;5074128;28;20607;-54
2023/07/25 02:46:42;;;;;;;1.00;1.00;;;;;13.80;94978.00;;;;5073344;28;20195;-55
2023/07/25 02:49:10;;;;;;;0.90;0.90;;;;;13.80;94965.00;;;;5073357;28;20191;-54
2023/07/25 02:51:38;;;;;;;1.47;0.90;;;;;13.80;94972.00;;;;5073198;28;20218;-54
2023/07/25 02:54:05;;;;;;;0.87;0.87;;;;;13.80;94962.00;;;;5073431;28;20227;-54
2023/07/25 02:56:33;;;;;;;0.80;0.80;;;;;13.90;94947.00;;;;5073276;28;20245;-54
2023/07/25 02:59:00;;;;;;;0.60;0.60;;;;;13.70;94934.00;;;;5073171;28;20203;-54
2023/07/25 03:01:28;;;;;;;0.80;0.80;;;;;13.60;94947.00;;;;5073172;28;20191;-56
2023/07/25 03:03:55;;;;;;;0.70;0.70;;;;;13.50;94942.00;;;;5071788;28;20249;-54
2023/07/25 03:06:22;;;;;;;1.30;1.30;;;;;13.60;94949.00;;;;5073133;28;20203;-54
2023/07/25 03:08:51;;;;;;;0.90;0.90;;;;;13.70;94950.00;;;;5073260;28;20197;-54
2023/07/25 03:11:19;;;;;;;0.70;0.70;;;;;13.50;94949.00;;;;5073280;28;20672;-55
2023/07/25 03:13:46;;;;;;;0.90;0.90;;;;;13.40;94938.00;;;;5073005;28;20264;-55
2023/07/25 03:16:13;;;;;;;0.90;0.90;;;;;13.50;94932.00;;;;5073012;28;20726;-55
2023/07/25 03:18:41;;;;;;;1.00;1.00;;;;;13.50;94919.00;;;;5073032;28;20195;-55
2023/07/25 03:21:08;;;;;;;0.87;0.87;;;;;13.50;94916.00;;;;5073260;28;20187;-54
2023/07/25 03:23:35;;;;;;;0.60;0.60;;;;;13.40;94918.00;;;;5073063;28;20731;-55
2023/07/25 03:26:04;;;;;;;0.57;0.57;;;;;13.40;94927.00;;;;5071663;28;20260;-55
2023/07/25 03:28:31;;;;;;;0.67;0.67;;;;;13.50;94947.00;;;;5073048;28;20219;-55
2023/07/25 03:30:59;;;;;;;0.97;0.97;;;;;13.40;94946.00;;;;5072737;28;20290;-55
2023/07/25 03:33:27;;;;;;;0.80;0.80;;;;;13.50;94934.00;;;;5072994;28;20226;-55
2023/07/25 03:35:54;;;;;;;0.73;0.73;;;;;13.50;94945.00;;;;5074274;28;20192;-55
2023/07/25 03:38:22;;;;;;;0.77;0.77;;;;;13.60;94941.00;;;;5076973;28;20195;-55
2023/07/25 03:40:49;;;;;;;0.60;0.60;;;;;13.70;94933.00;;;;5076907;28;20253;-56
2023/07/25 03:43:18;;;;;;;1.10;1.10;;;;;13.70;94930.00;;;;5077267;28;20547;-55
2023/07/25 03:45:45;;;;;;;0.73;0.73;;;;;13.70;94927.00;;;;5076936;28;20195;-55
2023/07/25 03:48:13;;;;;;;1.37;1.00;;;;;13.70;94917.00;;;;5077065;28;20194;-55
2023/07/25 03:50:40;;;;;;;0.77;0.77;;;;;13.70;94931.00;;;;5076639;28;20207;-55
2023/07/25 03:53:07;;;;;;;0.60;0.60;;;;;13.70;94932.00;;;;5076611;28;20211;-55
2023/07/25 03:55:35;;;;;;;0.80;0.80;;;;;13.70;94947.00;;;;5076620;28;20187;-55
2023/07/25 03:58:02;;;;;;;0.97;0.97;;;;;13.80;94936.00;;;;5076853;28;20581;-55
2023/07/25 04:00:31;;;;;;;0.60;0.60;;;;;13.80;94931.00;;;;5076528;28;20191;-55
2023/07/25 04:02:58;;;;;;;0.83;0.83;;;;;13.90;94939.00;;;;5076469;28;20215;-55
2023/07/25 04:05:26;;;;;;;0.93;0.93;;;;;13.90;94933.00;;;;5076365;28;20191;-55
2023/07/25 04:07:53;;;;;;;0.70;0.70;;;;;13.90;94925.00;;;;5076294;28;20192;-54
2023/07/25 04:10:20;;;;;;;0.63;0.63;;;;;13.70;94931.00;;;;5076464;28;20220;-54
2023/07/25 04:12:48;;;;;;;0.80;0.80;;;;;13.70;94931.00;;;;5076162;28;20191;-55
2023/07/25 04:15:15;;;;;;;0.60;0.60;;;;;13.80;94939.00;;;;5074900;28;20305;-54
2023/07/25 04:17:44;;;;;;;0.50;0.50;;;;;13.90;94941.00;;;;5076392;28;20199;-54
2023/07/25 04:20:12;;;;;;;0.60;0.60;;;;;13.90;94941.00;;;;5076149;28;20184;-54
2023/07/25 04:22:39;;;;;;;0.50;0.50;;;;;14.10;94936.00;;;;5075941;28;20191;-55
2023/07/25 04:25:07;;;;;;;0.50;0.50;;;;;14.10;94937.00;;;;5075983;28;20195;-54
2023/07/25 04:27:35;;;;;;;1.03;1.03;;;;;14.30;94946.00;;;;5075991;28;20615;-54
2023/07/25 04:30:02;;;;;;;0.77;0.77;;;;;14.40;94948.00;;;;5076598;28;20195;-54
2023/07/25 04:32:30;;;;;;;0.60;0.60;;;;;14.50;94953.00;;;;5075808;28;20198;-54
2023/07/25 04:34:58;;;;;;;18.57;1.33;;;;;14.40;94954.00;;;;5075681;28;20563;-54
2023/07/25 04:37:26;;;;;;;0.73;0.73;;;;;14.20;94954.00;;;;5076092;28;20207;-54
2023/07/25 04:39:53;;;;;;;0.53;0.53;;;;;14.20;94954.00;;;;5075985;28;20589;-55
2023/07/25 04:42:21;;;;;;;1.00;1.00;;;;;14.20;94949.00;;;;5075684;28;20203;-55
2023/07/25 04:44:48;;;;;;;0.57;0.57;;;;;14.40;94949.00;;;;5075533;28;20222;-54
2023/07/25 04:47:15;;;;;;;0.90;0.90;;;;;14.50;94955.00;;;;5075237;28;20204;-55
2023/07/25 04:49:43;;;;;;;1.10;1.10;;;;;14.40;94962.00;;;;5075557;28;20198;-55
2023/07/25 04:52:12;;;;;;;1.00;1.00;;;;;14.40;94972.00;;;;5075946;28;20215;-54
2023/07/25 04:54:39;;;;;;;1.00;1.00;;;;;14.30;94961.00;;;;5075363;28;20234;-54
2023/07/25 04:57:07;;;;;;;2.30;2.13;;;;;14.30;94968.00;;;;5075684;28;20226;-54
2023/07/25 04:59:34;;;;;;;0.93;0.93;;;;;14.50;94967.00;;;;5075620;28;20196;-54
2023/07/25 05:02:02;;;;;;;1.43;1.30;;;;;14.60;94973.00;;;;5075382;28;20188;-54
2023/07/25 05:04:29;;;;;;;0.60;0.60;;;;;14.60;94974.00;;;;5075333;28;20207;-55
2023/07/25 05:06:56;;;;;;;0.70;0.70;;;;;14.60;94974.00;;;;5073926;28;20195;-55
2023/07/25 05:09:25;;;;;;;6.80;5.83;;;;;14.50;94968.00;;;;5075206;28;20245;-54
2023/07/25 05:11:52;;;;;;;1.20;1.20;;;;;14.50;94975.00;;;;5075643;28;20219;-55
2023/07/25 05:14:20;;;;;;;0.63;0.63;;;;;14.60;94965.00;;;;5074938;28;20229;-54
2023/07/25 05:16:47;;;;;;;2.13;0.97;;;;;14.50;94977.00;;;;5075043;28;20199;-54
2023/07/25 05:19:14;;;;;;;1.17;1.13;;;;;14.50;94983.00;;;;5075004;28;20195;-55
2023/07/25 05:21:42;;;;;;;0.80;0.80;;;;;14.40;94984.00;;;;5074947;28;20500;-54
2023/07/25 05:24:09;;;;;;;1.70;1.13;;;;;14.50;94975.00;;;;5074814;28;20215;-53
2023/07/25 05:26:38;;;;;;;0.80;0.80;;;;;14.50;94965.00;;;;5074876;28;20741;-54
2023/07/25 05:29:05;;;;;;;0.80;0.80;;;;;14.60;94966.00;;;;5074836;28;20187;-55
2023/07/25 05:31:33;;;;;;;0.50;0.50;;;;;14.70;94964.00;;;;5074697;28;20234;-55
2023/07/25 05:34:00;;;;;;;0.70;0.70;;;;;14.90;94947.00;;;;5074594;28;20222;-55
2023/07/25 05:36:28;;;;;;;0.77;0.77;;;;;14.90;94941.00;;;;5073412;28;20207;-55
2023/07/25 05:38:55;;;;;;;2.90;2.70;;;;;15.00;94956.00;;;;5074914;28;20531;-55
2023/07/25 05:41:23;;;;;;;1.10;1.10;;;;;15.10;94967.00;;;;5073362;28;20203;-54
2023/07/25 05:43:51;;;;;;;0.60;0.60;;;;;15.30;94963.00;;;;5074419;28;20219;-54
2023/07/25 05:46:19;;;;;;;1.03;1.03;;;;;15.10;94954.00;;;;5074466;28;20198;-56
2023/07/25 05:48:46;;;;;;;1.30;1.20;;;;;15.20;94962.00;;;;5074410;28;20254;-54
2023/07/25 05:51:14;;;;;;;4.70;1.53;;;;;15.20;94961.00;;;;5074662;28;20230;-56
2023/07/25 05:53:41;;;;;;;0.60;0.60;;;;;15.20;94963.00;;;;5073025;28;20233;-55
2023/07/25 05:56:08;;;;;;;0.73;0.73;;;;;15.30;94966.00;;;;5074576;28;20202;-55
2023/07/25 05:58:36;;;;;;;0.60;0.60;;;;;15.30;94961.00;;;;5073602;28;20195;-55
2023/07/25 06:01:05;;;;;;;1.20;1.07;;;;;15.30;94970.00;;;;5074485;28;20187;-55
2023/07/25 06:03:32;;;;;;;0.83;0.83;;;;;15.10;94963.00;;;;5074139;28;20214;-55
2023/07/25 06:06:00;;;;;;;0.90;0.90;;;;;15.20;94952.00;;;;5074157;28;20192;-55
2023/07/25 06:08:27;;;;;;;1.00;1.00;;;;;15.30;94948.00;;;;5074051;28;20200;-55
2023/07/25 06:10:55;;;;;;;0.90;0.90;;;;;15.40;94964.00;;;;5073942;28;20523;-55
2023/07/25 06:13:22;;;;;;;0.90;0.90;;;;;15.50;94958.00;;;;5074039;28;20241;-56
2023/07/25 06:15:50;;;;;;;1.43;1.33;;;;;15.50;94978.00;;;;5073916;28;20249;-57
2023/07/25 06:18:19;;;;;;;1.23;1.13;;;;;15.60;94971.00;;;;5073894;28;20196;-55
2023/07/25 06:20:48;;;;;;;0.90;0.90;;;;;15.70;94974.00;;;;5074064;28;20187;-55
2023/07/25 06:23:15;;;;;;;0.77;0.77;;;;;15.60;94977.00;;;;5073990;28;20546;-55
2023/07/25 06:25:43;;;;;;;0.97;0.97;;;;;15.60;94976.00;;;;5073979;28;20195;-55
2023/07/25 06:28:14;;;;;;;0.70;0.70;;;;;15.60;94987.00;;;;5073950;28;20219;-55
2023/07/25 06:30:42;;;;;;;0.50;0.50;;;;;15.40;94983.00;;;;5073579;28;20176;-55
2023/07/25 06:33:09;;;;;;;0.90;0.90;;;;;15.30;94974.00;;;;5073624;28;20584;-55
2023/07/25 06:35:38;;;;;;;0.40;0.40;;;;;15.30;94975.00;;;;5074409;28;20513;-55
2023/07/25 06:38:06;;;;;;;0.77;0.77;;;;;15.40;94964.00;;;;5073512;28;20685;-55
2023/07/25 06:40:33;;;;;;;0.50;0.50;;;;;15.40;94957.00;;;;5073515;28;20192;-55
2023/07/25 06:43:00;;;;;;;0.80;0.80;;;;;15.60;94957.00;;;;5073647;28;20269;-55
2023/07/25 06:45:28;;;;;;;1.00;1.00;;;;;15.70;94968.00;;;;5073836;28;20195;-55
2023/07/25 06:47:55;;;;;;;0.70;0.70;;;;;15.80;94957.00;;;;5072002;28;20281;-55
2023/07/25 06:50:23;;;;;;;0.83;0.83;;;;;15.80;94942.00;;;;5071991;28;20693;-55
2023/07/25 06:52:51;;;;;;;1.43;1.33;;;;;15.90;94946.00;;;;5072530;28;20215;-55
2023/07/25 06:55:19;;;;;;;0.73;0.73;;;;;16.10;94938.00;;;;5073196;28;20199;-55
2023/07/25 06:57:46;;;;;;;0.87;0.87;;;;;16.20;94932.00;;;;5073103;28;20187;-55
2023/07/25 07:00:15;;;;;;;0.70;0.70;;;;;16.60;94923.00;;;;5073384;28;20565;-55
2023/07/25 07:02:42;;;;;;;1.03;1.03;;;;;16.80;94924.00;;;;5072998;28;20188;-55
2023/07/25 07:05:10;;;;;;;0.53;0.53;;;;;17.00;94915.00;;;;5073012;28;20191;-55
2023/07/25 07:07:38;;;;;;;0.70;0.70;;;;;17.10;94936.00;;;;5073016;28;20195;-55
2023/07/25 07:10:08;;;;;;;0.40;0.40;;;;;17.00;94933.00;;;;5073242;28;20195;-55
2023/07/25 07:12:35;;;;;;;0.60;0.60;;;;;16.80;94929.00;;;;5073068;28;20758;-55
2023/07/25 07:15:03;;;;;;;0.77;0.77;;;;;16.80;94919.00;;;;5073026;28;20248;-55
2023/07/25 07:17:30;;;;;;;0.50;0.50;;;;;17.20;94916.00;;;;5072884;28;20220;-55
2023/07/25 07:20:00;;;;;;;0.63;0.63;;;;;17.20;94910.00;;;;5072963;28;20206;-55
2023/07/25 07:22:27;;;;;;;0.50;0.50;;;;;17.20;94915.00;;;;5073204;28;20202;-55
2023/07/25 07:24:56;;;;;;;0.50;0.50;;;;;17.30;94908.00;;;;5072785;28;20682;-55
2023/07/25 07:27:25;;;;;;;0.60;0.60;;;;;17.70;94917.00;;;;5073399;28;20697;-55
2023/07/25 07:29:54;;;;;;;0.77;0.77;;;;;17.50;94907.00;;;;5073143;28;20201;-55
2023/07/25 07:32:21;;;;;;;0.73;0.73;;;;;17.20;94902.00;;;;5073448;28;20215;-55
2023/07/25 07:34:48;;;;;;;0.37;0.37;;;;;17.70;94896.00;;;;5071437;28;20227;-55
2023/07/25 07:37:16;;;;;;;0.80;0.80;;;;;18.20;94896.00;;;;5073510;28;20214;-55
2023/07/25 07:39:43;;;;;;;0.40;0.40;;;;;18.10;94902.00;;;;5073033;28;20198;-55
2023/07/25 07:42:11;;;;;;;0.80;0.80;;;;;17.60;94899.00;;;;5072647;28;20205;-55
2023/07/25 07:44:39;;;;;;;0.50;0.50;;;;;17.60;94912.00;;;;5072677;28;20219;-55
2023/07/25 07:47:07;;;;;;;0.77;0.77;;;;;17.80;94909.00;;;;5072969;28;20207;-55
2023/07/25 07:49:35;;;;;;;0.43;0.43;;;;;17.80;94908.00;;;;5072676;28;20194;-55
2023/07/25 07:52:02;;;;;;;0.50;0.50;;;;;17.80;94915.00;;;;5073037;28;20234;-55
2023/07/25 07:54:30;;;;;;;0.47;0.47;;;;;17.70;94921.00;;;;5072603;28;20233;-55
2023/07/25 07:56:57;;;;;;;0.63;0.63;;;;;17.60;94931.00;;;;5072630;28;20198;-55
2023/07/25 07:59:25;;;;;;;0.30;0.30;;;;;17.20;94921.00;;;;5072627;28;20228;-55
2023/07/25 08:01:54;;;;;;;0.60;0.60;;;;;17.00;94921.00;;;;5072883;28;20191;-55
2023/07/25 08:04:21;;;;;;;0.53;0.53;;;;;17.00;94925.00;;;;5072468;28;20211;-54
2023/07/25 08:06:48;;;;;;;0.60;0.60;;;;;17.10;94916.00;;;;5072521;28;20310;-56
2023/07/25 08:09:16;;;;;;;1.30;1.20;;;;;16.70;94920.00;;;;5072931;28;20257;-55
2023/07/25 08:11:43;;;;;;;0.57;0.57;;;;;17.00;94922.00;;;;5072336;28;20219;-55
2023/07/25 08:14:11;;;;;;;0.63;0.63;;;;;17.00;94929.00;;;;5072355;28;20215;-55
2023/07/25 08:16:38;;;;;;;0.60;0.60;;;;;16.90;94921.00;;;;5073041;28;20191;-55
2023/07/25 08:19:07;;;;;;;0.80;0.80;;;;;16.80;94916.00;;;;5072646;28;20196;-55
2023/07/25 08:21:35;;;;;;;0.50;0.50;;;;;16.70;94920.00;;;;5073125;28;20215;-55
2023/07/25 08:24:02;;;;;;;0.60;0.60;;;;;16.70;94930.00;;;;5076270;28;20571;-55
2023/07/25 08:26:29;;;;;;;0.50;0.50;;;;;16.70;94918.00;;;;5075949;28;20192;-55
2023/07/25 08:28:57;;;;;;;0.70;0.70;;;;;16.60;94925.00;;;;5075986;28;20187;-55
2023/07/25 08:31:24;;;;;;;0.63;0.63;;;;;16.60;94922.00;;;;5075888;28;20226;-55
2023/07/25 08:33:52;;;;;;;0.40;0.40;;;;;16.70;94915.00;;;;5075849;28;20313;-55
2023/07/25 08:36:21;;;;;;;0.60;0.60;;;;;16.70;94917.00;;;;5076098;28;20278;-55
2023/07/25 08:38:48;;;;;;;0.70;0.70;;;;;16.70;94913.00;;;;5075686;28;20213;-55
2023/07/25 08:41:20;;;;;;;0.80;0.80;;;;;16.90;94918.00;;;;5075671;28;20195;-55
2023/07/25 08:43:50;;;;;;;0.33;0.33;;;;;17.00;94917.00;;;;5075659;28;20222;-54
2023/07/25 08:46:20;;;;;;;0.70;0.70;;;;;17.40;94917.00;;;;5075896;28;20194;-54
2023/07/25 08:48:49;;;;;;;1.03;1.03;;;;;17.10;94914.00;;;;5074298;28;20198;-55
2023/07/25 08:51:22;;;;;;;0.50;0.50;;;;;17.40;94919.00;;;;5075430;28;20188;-55
2023/07/25 08:53:57;;;;;;;0.63;0.63;;;;;17.50;94915.00;;;;5076020;28;20219;-54
2023/07/25 08:56:25;;;;;;;0.73;0.73;;;;;17.50;94919.00;;;;5075617;28;20187;-55
2023/07/25 08:58:53;;;;;;;0.50;0.50;;;;;17.40;94909.00;;;;5075294;28;20236;-54
2023/07/25 09:01:22;;;;;;;0.50;0.50;;;;;17.30;94900.00;;;;5075341;28;20218;-54
2023/07/25 09:03:50;;;;;;;0.50;0.50;;;;;17.80;94896.00;;;;5075378;28;20225;-56
2023/07/25 09:06:18;;;;;;;0.83;0.83;;;;;18.20;94900.00;;;;5075299;28;20187;-55
2023/07/25 09:08:46;;;;;;;0.67;0.67;;;;;18.30;94897.00;;;;5075516;28;20565;-55
2023/07/25 09:11:17;;;;;;;0.53;0.53;;;;;18.10;94897.00;;;;5075127;28;20193;-54
2023/07/25 09:13:45;;;;;;;0.73;0.73;;;;;18.20;94897.00;;;;5075638;28;20286;-54
2023/07/25 09:16:13;;;;;;;0.60;0.60;;;;;18.20;94892.00;;;;5075146;28;20192;-54
2023/07/25 09:18:41;;;;;;;0.50;0.50;;;;;18.20;94883.00;;;;5075053;28;20192;-55
2023/07/25 09:21:09;;;;;;;0.97;0.97;;;;;18.60;94906.00;;;;5075276;28;20187;-54
2023/07/25 09:23:36;;;;;;;0.93;0.87;;;;;18.70;94896.00;;;;5074918;28;20240;-54
2023/07/25 09:26:08;;;;;;;0.50;0.50;;;;;18.70;94896.00;;;;5074894;28;20187;-54
2023/07/25 09:28:36;;;;;;;0.53;0.53;;;;;18.70;94902.00;;;;5075216;28;20627;-54
2023/07/25 09:31:04;;;;;;;0.77;0.77;;;;;18.80;94906.00;;;;5075027;28;20234;-54
2023/07/25 09:33:32;;;;;;;0.50;0.50;;;;;18.80;94906.00;;;;5073582;28;20219;-54
2023/07/25 09:36:00;;;;;;;0.50;0.50;;;;;19.00;94905.00;;;;5074750;28;20209;-54
2023/07/25 09:38:27;;;;;;;0.63;0.63;;;;;19.30;94890.00;;;;5074622;28;20215;-54
2023/07/25 09:40:56;;;;;;;0.80;0.80;;;;;18.90;94895.00;;;;5074868;28;20198;-54
2023/07/25 09:43:26;;;;;;;0.43;0.43;;;;;18.80;94898.00;;;;5074476;28;20207;-54
2023/07/25 09:45:54;;;;;;;0.50;0.50;;;;;18.60;94911.00;;;;5074522;28;20197;-55
2023/07/25 09:48:22;;;;;;;0.50;0.50;;;;;18.50;94904.00;;;;5074400;28;20195;-54
2023/07/25 09:50:51;;;;;;;0.57;0.57;;;;;18.50;94914.00;;;;5074626;28;20195;-54
2023/07/25 09:53:19;;;;;;;0.50;0.50;;;;;18.20;94910.00;;;;5074136;28;20243;-54
2023/07/25 09:55:46;;;;;;;0.37;0.37;;;;;18.30;94919.00;;;;5074483;28;20310;-54
2023/07/25 09:58:14;;;;;;;0.50;0.50;;;;;17.90;94927.00;;;;5074245;28;20274;-54
2023/07/25 10:00:44;;;;;;;0.40;0.40;;;;;17.60;94928.00;;;;5074088;28;20187;-54
2023/07/25 10:03:12;;;;;;;0.37;0.37;;;;;17.50;94923.00;;;;5074376;28;20340;-54
2023/07/25 10:05:44;;;;;;;0.40;0.40;;;;;17.50;94928.00;;;;5074108;28;20202;-54
2023/07/25 10:08:12;;;;;;;0.50;0.50;;;;;17.70;94929.00;;;;5074076;28;20184;-54
2023/07/25 10:10:40;;;;;;;0.77;0.77;;;;;17.60;94934.00;;;;5073974;28;20218;-54
2023/07/25 10:13:08;;;;;;;0.50;0.50;;;;;17.50;94931.00;;;;5073820;28;20702;-54
2023/07/25 10:15:36;;;;;;;1.43;1.33;;;;;17.70;94936.00;;;;5073954;28;20191;-54
2023/07/25 10:18:19;;;;;;;0.60;0.60;;;;;17.40;94937.00;;;;5073813;28;20198;-54
2023/07/25 10:20:47;;;;;;;0.50;0.50;;;;;17.60;94937.00;;;;5074069;28;20685;-54
2023/07/25 10:23:15;;;;;;;0.50;0.50;;;;;17.80;94925.00;;;;5073644;28;20211;-54
2023/07/25 10:25:42;;;;;;;0.97;0.83;;;;;17.80;94932.00;;;;5074211;28;20199;-54
2023/07/25 10:28:11;;;;;;;0.40;0.40;;;;;17.80;94920.00;;;;5073929;28;20200;-54
2023/07/25 10:30:43;;;;;;;0.50;0.50;;;;;17.80;94919.00;;;;5073608;28;20192;-54
2023/07/25 10:33:13;;;;;;;0.60;0.60;;;;;18.30;94911.00;;;;5071993;28;20340;-55
2023/07/25 10:35:43;;;;;;;0.37;0.37;;;;;18.30;94910.00;;;;5073523;28;20283;-54
2023/07/25 10:38:11;;;;;;;0.80;0.80;;;;;18.30;94902.00;;;;5073446;28;20206;-55
2023/07/25 10:40:53;;;;;;;0.93;0.60;;;;;18.30;94922.00;;;;5074171;28;20564;-55
2023/07/25 10:43:21;;;;;;;0.57;0.57;;;;;18.00;94913.00;;;;5073322;28;20234;-54
2023/07/25 10:45:51;;;;;;;1.10;1.03;;;;;18.70;94920.00;;;;5073143;28;20196;-55
2023/07/25 10:48:35;;;;;;;0.63;0.63;;;;;18.40;94914.00;;;;5073251;28;20196;-55
2023/07/25 10:51:07;;;;;;;0.57;0.57;;;;;18.70;94898.00;;;;5073315;28;20222;-55
2023/07/25 10:53:35;;;;;;;0.50;0.50;;;;;18.60;94913.00;;;;5073463;28;20241;-58
2023/07/25 10:56:13;;;;;;;0.40;0.40;;;;;18.70;94911.00;;;;5073526;28;20194;-55
2023/07/25 10:59:02;;;;;;;0.70;0.70;;;;;19.00;94904.00;;;;5073803;28;20266;-55
2023/07/25 11:01:38;;;;;;;0.53;0.53;;;;;18.90;94919.00;;;;5073207;28;20194;-55
2023/07/25 11:04:24;;;;;;;0.50;0.50;;;;;19.10;94904.00;;;;5071847;28;20265;-55
2023/07/25 11:06:52;;;;;;;0.60;0.60;;;;;18.90;94896.00;;;;5073730;28;20554;-55
2023/07/25 11:09:21;;;;;;;0.50;0.50;;;;;19.20;94912.00;;;;5073085;28;20191;-55
2023/07/25 11:11:49;;;;;;;0.40;0.40;;;;;19.10;94890.00;;;;5073030;28;20200;-55
2023/07/25 11:14:18;;;;;;;0.67;0.67;;;;;19.40;94899.00;;;;5072860;28;20221;-55
2023/07/25 11:16:47;;;;;;;0.43;0.43;;;;;19.40;94878.00;;;;5072998;28;20191;-55
2023/07/25 11:19:15;;;;;;;0.67;0.67;;;;;19.50;94903.00;;;;5073258;28;20226;-55
2023/07/25 11:21:44;;;;;;;0.30;0.30;;;;;19.60;94913.00;;;;5073184;28;20554;-55
2023/07/25 11:24:13;;;;;;;0.50;0.50;;;;;19.70;94909.00;;;;5073113;28;20230;-55
2023/07/25 11:26:43;;;;;;;0.50;0.50;;;;;19.90;94899.00;;;;5072877;28;20274;-55
2023/07/25 11:29:12;;;;;;;0.40;0.40;;;;;20.10;94888.00;;;;5071551;28;20567;-55
2023/07/25 11:31:47;;;;;;;1.07;1.03;;;;;20.60;94872.00;;;;5072835;28;20191;-55
2023/07/25 11:34:16;;;;;;;0.50;0.50;;;;;20.30;94875.00;;;;5072722;28;20254;-55
2023/07/25 11:36:45;;;;;;;0.50;0.50;;;;;20.30;94910.00;;;;5073132;28;20187;-55
2023/07/25 11:39:14;;;;;;;0.50;0.50;;;;;20.00;94906.00;;;;5072817;28;20191;-55
2023/07/25 11:41:44;;;;;;;0.50;0.50;;;;;19.80;94911.00;;;;5072827;28;20278;-54
2023/07/25 11:44:14;;;;;;;0.30;0.30;;;;;19.50;94927.00;;;;5072615;28;20203;-55
2023/07/25 11:46:43;;;;;;;0.60;0.60;;;;;19.00;94937.00;;;;5072733;28;20233;-55
2023/07/25 11:49:13;;;;;;;0.50;0.50;;;;;18.00;94954.00;;;;5072649;28;20187;-55
2023/07/25 11:51:41;;;;;;;0.40;0.40;;;;;17.50;94953.00;;;;5072921;28;20191;-55
2023/07/25 11:54:11;;;;;;;0.60;0.60;;;;;17.10;94966.00;;;;5072728;28;20223;-55
2023/07/25 11:56:40;;;;;;;0.50;0.50;;;;;16.90;94970.00;;;;5073562;28;20192;-55
2023/07/25 11:59:11;;;;;;;0.43;0.43;;;;;16.70;94982.00;;;;5076572;28;20191;-55
2023/07/25 12:01:38;;;;;;;0.70;0.70;;;;;16.00;94993.00;;;;5076816;28;20175;-54
2023/07/25 12:04:14;;;;;;;0.60;0.60;;;;;15.70;95001.00;;;;5076350;28;20208;-54
2023/07/25 12:06:42;;;;;;;0.80;0.80;;;;;15.90;94994.00;;;;5076694;28;20229;-54
2023/07/25 12:09:11;;;;;;;0.60;0.60;;;;;15.90;94982.00;;;;5076374;28;20250;-54
2023/07/25 12:11:43;;;;;;;0.50;0.50;;;;;16.20;94990.00;;;;5076363;28;20198;-54
2023/07/25 12:14:12;;;;;;;0.40;0.40;;;;;16.40;94986.00;;;;5076616;28;20230;-54
2023/07/25 12:16:43;;;;;;;0.53;0.53;;;;;16.90;94972.00;;;;5076300;28;20560;-59
2023/07/25 12:19:12;;;;;;;0.50;0.50;;;;;17.70;94969.00;;;;5076574;28;20187;-54
2023/07/25 12:21:41;;;;;;;0.57;0.57;;;;;18.20;94961.00;;;;5076936;28;20618;-54
2023/07/25 12:24:11;;;;;;;0.50;0.50;;;;;18.30;94945.00;;;;5076331;28;20282;-55